Svitzer Sines — CSYI4 — position and weather

sailwx.info

Track history (hours):
 
Tides and Currents Weather Stations Pressure Air Temp Water Temp Dewpoint Dewpoint Depression Visibility Wind Speed Wind Dir Waves Ship Positions

Svitzer Sines

Last reported at 2016-Sep-30 17:32 UTC. Time now 2016-Sep-30 20:23 UTC.
Position N 38°41' W 009°27'.

Length 26 m; draft 4.3 m.

Type: Tug. MMSI: 263601890.

Date/timePositionNaut miles runAvg speedWind from/ knotsBaromVisibWave heightAir tempDewpointWater temp
2016-Sep-30 17:32N 38°41' W 009°27'0 0.0
2016-Sep-30 16:32N 38°41' W 009°27'0 0.0
2016-Sep-30 14:32N 38°41' W 009°27'0 0.0
2016-Sep-30 13:29N 38°41' W 009°27'0 0.1
2016-Sep-30 10:33N 38°41' W 009°28'0 0.1
2016-Sep-30 08:33N 38°41' W 009°27'0 0.1
2016-Sep-30 06:34N 38°41' W 009°28'0 0.0
2016-Sep-30 03:34N 38°41' W 009°28'0 0.0
2016-Sep-30 02:34N 38°41' W 009°28'0 0.0
2016-Sep-29 23:33N 38°41' W 009°28'0 0.0
2016-Sep-29 21:33N 38°41' W 009°28'0 0.0
2016-Sep-29 20:33N 38°41' W 009°28'0 0.2
2016-Sep-29 19:33N 38°41' W 009°27'0 0.0
2016-Sep-29 16:33N 38°41' W 009°27'0 0.1
2016-Sep-29 15:33N 38°41' W 009°27'0 0.3
2016-Sep-29 14:33N 38°41' W 009°27'0 0.4
2016-Sep-29 13:33N 38°41' W 009°27'13 2.2
2016-Sep-29 07:29N 38°42' W 009°10'0 0.0
2016-Sep-29 00:32N 38°42' W 009°10'0 0.0
2016-Sep-28 21:33N 38°42' W 009°10'0 0.0
2016-Sep-28 19:33N 38°42' W 009°10'0 0.0
2016-Sep-28 16:33N 38°42' W 009°10'0 0.0
2016-Sep-28 15:33N 38°42' W 009°10'0 0.0
2016-Sep-28 12:33N 38°42' W 009°10'0 0.0
2016-Sep-28 08:33N 38°42' W 009°10'0 0.0
2016-Sep-28 03:34N 38°42' W 009°10'0 0.0
2016-Sep-28 02:34N 38°42' W 009°10'0 0.0
2016-Sep-28 01:34N 38°42' W 009°10'0 0.0
2016-Sep-27 23:33N 38°42' W 009°10'0 0.0
2016-Sep-27 19:34N 38°42' W 009°10'0 0.0
2016-Sep-27 14:33N 38°42' W 009°10'0 0.0
2016-Sep-27 13:33N 38°42' W 009°10'0 0.0
2016-Sep-27 10:34N 38°42' W 009°10'0 0.0
2016-Sep-27 00:33N 38°42' W 009°10'0 0.0
2016-Sep-26 20:33N 38°42' W 009°10'0 0.0
2016-Sep-26 19:33N 38°42' W 009°10'0 0.0
2016-Sep-26 15:33N 38°42' W 009°10'0 0.0
2016-Sep-26 13:33N 38°42' W 009°10'0 0.0
2016-Sep-26 11:33N 38°42' W 009°10'1 0.4
2016-Sep-26 08:34N 38°42' W 009°11'1 0.2
2016-Sep-26 02:33N 38°42' W 009°10'0 0.0
2016-Sep-26 01:34N 38°42' W 009°10'0 0.0
2016-Sep-26 00:33N 38°42' W 009°10'2 0.6
2016-Sep-25 21:33N 38°42' W 009°07'2 0.5
2016-Sep-25 17:33N 38°42' W 009°10'0 0.0
2016-Sep-25 16:34N 38°42' W 009°10'0 0.0
2016-Sep-25 15:34N 38°42' W 009°10'0 0.0
2016-Sep-25 14:34N 38°42' W 009°10'0 0.0
2016-Sep-25 12:34N 38°42' W 009°10'0 0.0
2016-Sep-25 11:33N 38°42' W 009°10'0 0.0
2016-Sep-25 10:33N 38°42' W 009°10'0 0.1
2016-Sep-25 09:33N 38°42' W 009°10'0 0.0
2016-Sep-25 07:34N 38°42' W 009°10'0 0.0
2016-Sep-25 04:33N 38°42' W 009°10'0 0.0
2016-Sep-25 00:33N 38°42' W 009°10'0 0.0
2016-Sep-24 22:33N 38°42' W 009°10'0 0.0
2016-Sep-24 21:34N 38°42' W 009°10'0 0.0
2016-Sep-24 19:33N 38°42' W 009°10'0 0.0
2016-Sep-24 18:33N 38°42' W 009°10'0 0.1
2016-Sep-24 17:33N 38°42' W 009°09'0 0.1
2016-Sep-24 16:33N 38°42' W 009°10'0 0.0
2016-Sep-24 14:33N 38°42' W 009°10'0 0.0
2016-Sep-24 12:32N 38°42' W 009°10'0 0.2
2016-Sep-24 10:33N 38°42' W 009°10'0 0.3
2016-Sep-24 09:32N 38°42' W 009°10'0 0.0
2016-Sep-24 03:33N 38°42' W 009°10'0 0.0
2016-Sep-24 02:33N 38°42' W 009°10'0 0.0
2016-Sep-24 01:33N 38°42' W 009°10'0 0.0
2016-Sep-24 00:33N 38°42' W 009°10'0 0.0
2016-Sep-23 19:34N 38°42' W 009°10'0 0.0
2016-Sep-23 17:34N 38°42' W 009°10'0 0.0
2016-Sep-23 16:34N 38°42' W 009°10'0 0.0
2016-Sep-23 15:33N 38°42' W 009°10'0 0.0
2016-Sep-23 13:33N 38°42' W 009°10'0 0.0
2016-Sep-23 09:33N 38°42' W 009°10'0 0.0
2016-Sep-23 06:33N 38°42' W 009°10'0 0.0
2016-Sep-23 04:34N 38°42' W 009°10'0 0.0
2016-Sep-23 03:33N 38°42' W 009°10'0 0.0
2016-Sep-23 02:33N 38°42' W 009°10'0 0.0
2016-Sep-23 01:33N 38°42' W 009°10'0 0.0
2016-Sep-23 00:34N 38°42' W 009°10'0 0.0
2016-Sep-22 23:33N 38°42' W 009°10'0 0.0
2016-Sep-22 20:33N 38°42' W 009°10'2 0.3
2016-Sep-22 12:34N 38°40' W 009°09'2 0.3
2016-Sep-22 04:33N 38°42' W 009°10'0 0.0
2016-Sep-22 03:33N 38°42' W 009°10'0 0.0
2016-Sep-22 00:33N 38°42' W 009°10'0 0.0
2016-Sep-21 23:34N 38°42' W 009°10'0 0.0
2016-Sep-21 22:34N 38°42' W 009°10'0 0.0
2016-Sep-21 19:33N 38°42' W 009°10'0 0.0
2016-Sep-21 16:33N 38°42' W 009°10'0 0.0
2016-Sep-21 09:34N 38°42' W 009°10'1 1.0
2016-Sep-21 08:33N 38°41' W 009°10'19 6.4
2016-Sep-21 05:34N 38°24' W 009°22'17 8.5
2016-Sep-21 03:32N 38°07' W 009°21'8 8.4
2016-Sep-21 02:33N 37°59' W 009°21'  
Track history (hours):
 
Tides and Currents Weather Stations Pressure Air Temp Water Temp Dewpoint Dewpoint Depression Visibility Wind Speed Wind Dir Waves Ship Positions

Svitzer Sines

Last reported at 2016-Sep-30 17:32 UTC. Time now 2016-Sep-30 20:23 UTC.
Position N 38°41' W 009°27'.

Length 26 m; draft 4.3 m.

Type: Tug. MMSI: 263601890.

Date/timePositionNaut miles runAvg speedWind from/ knotsBaromVisibWave heightAir tempDewpointWater temp
2016-Sep-30 17:32N 38°41' W 009°27'0 0.0
2016-Sep-30 16:32N 38°41' W 009°27'0 0.0
2016-Sep-30 14:32N 38°41' W 009°27'0 0.0
2016-Sep-30 13:29N 38°41' W 009°27'0 0.1
2016-Sep-30 10:33N 38°41' W 009°28'0 0.1
2016-Sep-30 08:33N 38°41' W 009°27'0 0.1
2016-Sep-30 06:34N 38°41' W 009°28'0 0.0
2016-Sep-30 03:34N 38°41' W 009°28'0 0.0
2016-Sep-30 02:34N 38°41' W 009°28'0 0.0
2016-Sep-29 23:33N 38°41' W 009°28'0 0.0
2016-Sep-29 21:33N 38°41' W 009°28'0 0.0
2016-Sep-29 20:33N 38°41' W 009°28'0 0.2
2016-Sep-29 19:33N 38°41' W 009°27'0 0.0
2016-Sep-29 16:33N 38°41' W 009°27'0 0.1
2016-Sep-29 15:33N 38°41' W 009°27'0 0.3
2016-Sep-29 14:33N 38°41' W 009°27'0 0.4
2016-Sep-29 13:33N 38°41' W 009°27'13 2.2
2016-Sep-29 07:29N 38°42' W 009°10'0 0.0
2016-Sep-29 00:32N 38°42' W 009°10'0 0.0
2016-Sep-28 21:33N 38°42' W 009°10'0 0.0
2016-Sep-28 19:33N 38°42' W 009°10'0 0.0
2016-Sep-28 16:33N 38°42' W 009°10'0 0.0
2016-Sep-28 15:33N 38°42' W 009°10'0 0.0
2016-Sep-28 12:33N 38°42' W 009°10'0 0.0
2016-Sep-28 08:33N 38°42' W 009°10'0 0.0
2016-Sep-28 03:34N 38°42' W 009°10'0 0.0
2016-Sep-28 02:34N 38°42' W 009°10'0 0.0
2016-Sep-28 01:34N 38°42' W 009°10'0 0.0
2016-Sep-27 23:33N 38°42' W 009°10'0 0.0
2016-Sep-27 19:34N 38°42' W 009°10'0 0.0
2016-Sep-27 14:33N 38°42' W 009°10'0 0.0
2016-Sep-27 13:33N 38°42' W 009°10'0 0.0
2016-Sep-27 10:34N 38°42' W 009°10'0 0.0
2016-Sep-27 00:33N 38°42' W 009°10'0 0.0
2016-Sep-26 20:33N 38°42' W 009°10'0 0.0
2016-Sep-26 19:33N 38°42' W 009°10'0 0.0
2016-Sep-26 15:33N 38°42' W 009°10'0 0.0
2016-Sep-26 13:33N 38°42' W 009°10'0 0.0
2016-Sep-26 11:33N 38°42' W 009°10'1 0.4
2016-Sep-26 08:34N 38°42' W 009°11'1 0.2
2016-Sep-26 02:33N 38°42' W 009°10'0 0.0
2016-Sep-26 01:34N 38°42' W 009°10'0 0.0
2016-Sep-26 00:33N 38°42' W 009°10'2 0.6
2016-Sep-25 21:33N 38°42' W 009°07'2 0.5
2016-Sep-25 17:33N 38°42' W 009°10'0 0.0
2016-Sep-25 16:34N 38°42' W 009°10'0 0.0
2016-Sep-25 15:34N 38°42' W 009°10'0 0.0
2016-Sep-25 14:34N 38°42' W 009°10'0 0.0
2016-Sep-25 12:34N 38°42' W 009°10'0 0.0
2016-Sep-25 11:33N 38°42' W 009°10'0 0.0
2016-Sep-25 10:33N 38°42' W 009°10'0 0.1
2016-Sep-25 09:33N 38°42' W 009°10'0 0.0
2016-Sep-25 07:34N 38°42' W 009°10'0 0.0
2016-Sep-25 04:33N 38°42' W 009°10'0 0.0
2016-Sep-25 00:33N 38°42' W 009°10'0 0.0
2016-Sep-24 22:33N 38°42' W 009°10'0 0.0
2016-Sep-24 21:34N 38°42' W 009°10'0 0.0
2016-Sep-24 19:33N 38°42' W 009°10'0 0.0
2016-Sep-24 18:33N 38°42' W 009°10'0 0.1
2016-Sep-24 17:33N 38°42' W 009°09'0 0.1
2016-Sep-24 16:33N 38°42' W 009°10'0 0.0
2016-Sep-24 14:33N 38°42' W 009°10'0 0.0
2016-Sep-24 12:32N 38°42' W 009°10'0 0.2
2016-Sep-24 10:33N 38°42' W 009°10'0 0.3
2016-Sep-24 09:32N 38°42' W 009°10'0 0.0
2016-Sep-24 03:33N 38°42' W 009°10'0 0.0
2016-Sep-24 02:33N 38°42' W 009°10'0 0.0
2016-Sep-24 01:33N 38°42' W 009°10'0 0.0
2016-Sep-24 00:33N 38°42' W 009°10'0 0.0
2016-Sep-23 19:34N 38°42' W 009°10'0 0.0
2016-Sep-23 17:34N 38°42' W 009°10'0 0.0
2016-Sep-23 16:34N 38°42' W 009°10'0 0.0
2016-Sep-23 15:33N 38°42' W 009°10'0 0.0
2016-Sep-23 13:33N 38°42' W 009°10'0 0.0
2016-Sep-23 09:33N 38°42' W 009°10'0 0.0
2016-Sep-23 06:33N 38°42' W 009°10'0 0.0
2016-Sep-23 04:34N 38°42' W 009°10'0 0.0
2016-Sep-23 03:33N 38°42' W 009°10'0 0.0
2016-Sep-23 02:33N 38°42' W 009°10'0 0.0
2016-Sep-23 01:33N 38°42' W 009°10'0 0.0
2016-Sep-23 00:34N 38°42' W 009°10'0 0.0
2016-Sep-22 23:33N 38°42' W 009°10'0 0.0
2016-Sep-22 20:33N 38°42' W 009°10'2 0.3
2016-Sep-22 12:34N 38°40' W 009°09'2 0.3
2016-Sep-22 04:33N 38°42' W 009°10'0 0.0
2016-Sep-22 03:33N 38°42' W 009°10'0 0.0
2016-Sep-22 00:33N 38°42' W 009°10'0 0.0
2016-Sep-21 23:34N 38°42' W 009°10'0 0.0
2016-Sep-21 22:34N 38°42' W 009°10'0 0.0
2016-Sep-21 19:33N 38°42' W 009°10'0 0.0
2016-Sep-21 16:33N 38°42' W 009°10'0 0.0
2016-Sep-21 09:34N 38°42' W 009°10'1 1.0
2016-Sep-21 08:33N 38°41' W 009°10'19 6.4
2016-Sep-21 05:34N 38°24' W 009°22'17 8.5
2016-Sep-21 03:32N 38°07' W 009°21'8 8.4
2016-Sep-21 02:33N 37°59' W 009°21'  

Dump ship's entire track history